sensor_id;sensor_type;location;lat;lon;timestamp;pressure;altitude;pressure_sealevel;temperature;humidity
49723;BME280;43484;43.608;1.458;2023-04-23T00:01:46;98836.84;;;12.01;100.00
49723;BME280;43484;43.608;1.458;2023-04-23T00:04:14;98833.41;;;11.98;100.00
49723;BME280;43484;43.608;1.458;2023-04-23T00:06:45;98822.25;;;11.94;100.00
49723;BME280;43484;43.608;1.458;2023-04-23T00:09:14;98818.00;;;11.98;100.00
49723;BME280;43484;43.608;1.458;2023-04-23T00:11:42;98817.13;;;11.96;100.00
49723;BME280;43484;43.608;1.458;2023-04-23T00:14:09;98812.88;;;12.01;100.00
49723;BME280;43484;43.608;1.458;2023-04-23T00:16:38;98809.47;;;12.00;100.00
49723;BME280;43484;43.608;1.458;2023-04-23T00:19:04;98806.84;;;11.91;100.00
49723;BME280;43484;43.608;1.458;2023-04-23T00:21:31;98806.84;;;11.94;100.00
49723;BME280;43484;43.608;1.458;2023-04-23T00:23:57;98791.44;;;11.94;100.00
49723;BME280;43484;43.608;1.458;2023-04-23T00:26:24;98797.41;;;11.89;100.00
49723;BME280;43484;43.608;1.458;2023-04-23T00:28:51;98790.53;;;11.85;100.00
49723;BME280;43484;43.608;1.458;2023-04-23T00:31:17;98787.94;;;11.80;100.00
49723;BME280;43484;43.608;1.458;2023-04-23T00:33:48;98784.59;;;11.89;100.00
49723;BME280;43484;43.608;1.458;2023-04-23T00:36:15;98781.97;;;11.86;100.00
49723;BME280;43484;43.608;1.458;2023-04-23T00:38:41;98781.06;;;11.79;100.00
49723;BME280;43484;43.608;1.458;2023-04-23T00:41:08;98783.66;;;11.82;100.00
49723;BME280;43484;43.608;1.458;2023-04-23T00:43:35;98788.75;;;11.78;100.00
49723;BME280;43484;43.608;1.458;2023-04-23T00:46:02;98785.31;;;11.76;100.00
49723;BME280;43484;43.608;1.458;2023-04-23T00:48:29;98792.22;;;11.83;100.00
49723;BME280;43484;43.608;1.458;2023-04-23T00:50:58;98787.88;;;11.74;100.00
49723;BME280;43484;43.608;1.458;2023-04-23T00:53:26;98776.72;;;11.72;100.00
49723;BME280;43484;43.608;1.458;2023-04-23T00:55:52;98785.16;;;11.59;100.00
49723;BME280;43484;43.608;1.458;2023-04-23T00:58:20;98773.19;;;11.60;100.00
49723;BME280;43484;43.608;1.458;2023-04-23T01:00:46;98773.19;;;11.57;100.00
49723;BME280;43484;43.608;1.458;2023-04-23T01:03:15;98765.47;;;11.54;100.00
49723;BME280;43484;43.608;1.458;2023-04-23T01:05:44;98764.63;;;11.59;100.00
49723;BME280;43484;43.608;1.458;2023-04-23T01:08:14;98766.31;;;11.56;100.00
49723;BME280;43484;43.608;1.458;2023-04-23T01:10:46;98766.25;;;11.47;100.00
49723;BME280;43484;43.608;1.458;2023-04-23T01:13:13;98761.19;;;11.56;100.00
49723;BME280;43484;43.608;1.458;2023-04-23T01:15:40;98765.41;;;11.51;100.00
49723;BME280;43484;43.608;1.458;2023-04-23T01:18:06;98751.78;;;11.58;100.00
49723;BME280;43484;43.608;1.458;2023-04-23T01:20:34;98759.38;;;11.46;100.00
49723;BME280;43484;43.608;1.458;2023-04-23T01:23:02;98761.13;;;11.47;100.00
49723;BME280;43484;43.608;1.458;2023-04-23T01:25:29;98752.59;;;11.51;100.00
49723;BME280;43484;43.608;1.458;2023-04-23T01:27:56;98746.53;;;11.43;100.00
49723;BME280;43484;43.608;1.458;2023-04-23T01:30:26;98750.72;;;11.31;100.00
49723;BME280;43484;43.608;1.458;2023-04-23T01:32:54;98743.09;;;11.39;100.00
49723;BME280;43484;43.608;1.458;2023-04-23T01:35:22;98737.09;;;11.37;100.00
49723;BME280;43484;43.608;1.458;2023-04-23T01:37:49;98744.72;;;11.31;100.00
49723;BME280;43484;43.608;1.458;2023-04-23T01:40:18;98737.03;;;11.31;100.00
49723;BME280;43484;43.608;1.458;2023-04-23T01:42:46;98726.69;;;11.20;100.00
49723;BME280;43484;43.608;1.458;2023-04-23T01:45:13;98718.06;;;11.09;100.00
49723;BME280;43484;43.608;1.458;2023-04-23T01:47:40;98718.94;;;11.14;100.00
49723;BME280;43484;43.608;1.458;2023-04-23T01:50:08;98720.63;;;11.11;100.00
49723;BME280;43484;43.608;1.458;2023-04-23T01:52:34;98712.94;;;11.11;100.00
49723;BME280;43484;43.608;1.458;2023-04-23T01:55:02;98712.91;;;11.08;100.00
49723;BME280;43484;43.608;1.458;2023-04-23T01:57:29;98712.06;;;11.12;100.00
49723;BME280;43484;43.608;1.458;2023-04-23T02:00:02;98709.56;;;11.16;100.00
49723;BME280;43484;43.608;1.458;2023-04-23T02:02:34;98713.78;;;11.08;100.00
49723;BME280;43484;43.608;1.458;2023-04-23T02:05:01;98712.00;;;11.03;100.00
49723;BME280;43484;43.608;1.458;2023-04-23T02:07:31;98710.28;;;11.02;100.00
49723;BME280;43484;43.608;1.458;2023-04-23T02:09:58;98708.66;;;11.10;100.00
49723;BME280;43484;43.608;1.458;2023-04-23T02:12:24;98710.34;;;11.05;100.00
49723;BME280;43484;43.608;1.458;2023-04-23T02:14:52;98706.84;;;10.98;100.00
49723;BME280;43484;43.608;1.458;2023-04-23T02:17:20;98708.56;;;11.01;100.00
49723;BME280;43484;43.608;1.458;2023-04-23T02:19:48;98700.03;;;11.02;100.00
49723;BME280;43484;43.608;1.458;2023-04-23T02:22:16;98690.53;;;10.90;100.00
49723;BME280;43484;43.608;1.458;2023-04-23T02:24:43;98687.88;;;10.81;100.00
49723;BME280;43484;43.608;1.458;2023-04-23T02:27:09;98693.94;;;10.89;100.00
49723;BME280;43484;43.608;1.458;2023-04-23T02:29:36;98687.16;;;10.93;100.00
49723;BME280;43484;43.608;1.458;2023-04-23T02:32:03;98698.28;;;10.95;100.00
49723;BME280;43484;43.608;1.458;2023-04-23T02:34:29;98700.84;;;10.96;100.00
49723;BME280;43484;43.608;1.458;2023-04-23T02:36:56;98707.63;;;10.91;100.00
49723;BME280;43484;43.608;1.458;2023-04-23T02:39:23;98712.66;;;10.84;100.00
49723;BME280;43484;43.608;1.458;2023-04-23T02:41:49;98714.31;;;10.79;100.00
49723;BME280;43484;43.608;1.458;2023-04-23T02:44:16;98704.16;;;10.85;100.00
49723;BME280;43484;43.608;1.458;2023-04-23T02:46:42;98705.81;;;10.80;100.00
49723;BME280;43484;43.608;1.458;2023-04-23T02:49:09;98710.94;;;10.81;100.00
49723;BME280;43484;43.608;1.458;2023-04-23T02:51:36;98706.63;;;10.79;100.00
49723;BME280;43484;43.608;1.458;2023-04-23T02:54:02;98705.72;;;10.74;100.00
49723;BME280;43484;43.608;1.458;2023-04-23T02:56:29;98703.91;;;10.64;100.00
49723;BME280;43484;43.608;1.458;2023-04-23T02:58:56;98688.50;;;10.58;100.00
49723;BME280;43484;43.608;1.458;2023-04-23T03:01:23;98684.09;;;10.45;100.00
49723;BME280;43484;43.608;1.458;2023-04-23T03:03:50;98684.13;;;10.51;100.00
49723;BME280;43484;43.608;1.458;2023-04-23T03:06:17;98688.19;;;10.34;100.00
49723;BME280;43484;43.608;1.458;2023-04-23T03:08:44;98692.63;;;10.47;100.00
49723;BME280;43484;43.608;1.458;2023-04-23T03:11:11;98683.94;;;10.33;100.00
49723;BME280;43484;43.608;1.458;2023-04-23T03:13:37;98689.13;;;10.39;100.00
49723;BME280;43484;43.608;1.458;2023-04-23T03:16:04;98687.41;;;10.38;100.00
49723;BME280;43484;43.608;1.458;2023-04-23T03:18:31;98695.06;;;10.35;100.00
49723;BME280;43484;43.608;1.458;2023-04-23T03:20:58;98693.31;;;10.34;100.00
49723;BME280;43484;43.608;1.458;2023-04-23T03:23:25;98686.47;;;10.31;100.00
49723;BME280;43484;43.608;1.458;2023-04-23T03:25:52;98691.44;;;10.19;100.00
49723;BME280;43484;43.608;1.458;2023-04-23T03:28:18;98694.06;;;10.25;100.00
49723;BME280;43484;43.608;1.458;2023-04-23T03:30:45;98687.25;;;10.26;100.00
49723;BME280;43484;43.608;1.458;2023-04-23T03:33:11;98693.03;;;10.09;100.00
49723;BME280;43484;43.608;1.458;2023-04-23T03:35:38;98692.81;;;9.94;100.00
49723;BME280;43484;43.608;1.458;2023-04-23T03:38:04;98697.16;;;10.03;100.00
49723;BME280;43484;43.608;1.458;2023-04-23T03:40:31;98698.06;;;10.06;100.00
49723;BME280;43484;43.608;1.458;2023-04-23T03:42:58;98690.50;;;10.13;100.00
49723;BME280;43484;43.608;1.458;2023-04-23T03:45:25;98681.16;;;10.15;100.00
49723;BME280;43484;43.608;1.458;2023-04-23T03:47:51;98680.38;;;10.22;100.00
49723;BME280;43484;43.608;1.458;2023-04-23T03:50:18;98675.16;;;10.14;100.00
49723;BME280;43484;43.608;1.458;2023-04-23T03:52:45;98682.88;;;10.17;100.00
49723;BME280;43484;43.608;1.458;2023-04-23T03:55:11;98686.19;;;10.08;100.00
49723;BME280;43484;43.608;1.458;2023-04-23T03:57:38;98681.19;;;10.18;100.00
49723;BME280;43484;43.608;1.458;2023-04-23T04:00:05;98680.38;;;10.22;100.00
49723;BME280;43484;43.608;1.458;2023-04-23T04:02:37;98673.50;;;10.18;100.00
49723;BME280;43484;43.608;1.458;2023-04-23T04:05:05;98659.78;;;10.11;100.00
49723;BME280;43484;43.608;1.458;2023-04-23T04:07:32;98654.56;;;10.06;100.00
49723;BME280;43484;43.608;1.458;2023-04-23T04:09:59;98656.19;;;10.01;100.00
49723;BME280;43484;43.608;1.458;2023-04-23T04:12:28;98656.91;;;9.90;100.00
49723;BME280;43484;43.608;1.458;2023-04-23T04:14:55;98661.47;;;10.09;100.00
49723;BME280;43484;43.608;1.458;2023-04-23T04:17:21;98669.91;;;10.06;100.00
49723;BME280;43484;43.608;1.458;2023-04-23T04:19:48;98672.63;;;10.16;100.00
49723;BME280;43484;43.608;1.458;2023-04-23T04:22:14;98679.41;;;10.12;100.00
49723;BME280;43484;43.608;1.458;2023-04-23T04:24:41;98681.06;;;10.10;100.00
49723;BME280;43484;43.608;1.458;2023-04-23T04:27:09;98677.75;;;10.16;100.00
49723;BME280;43484;43.608;1.458;2023-04-23T04:29:36;98681.78;;;10.01;100.00
49723;BME280;43484;43.608;1.458;2023-04-23T04:32:07;98679.25;;;10.03;100.00
49723;BME280;43484;43.608;1.458;2023-04-23T04:34:34;98696.31;;;10.02;100.00
49723;BME280;43484;43.608;1.458;2023-04-23T04:37:03;98695.41;;;9.99;100.00
49723;BME280;43484;43.608;1.458;2023-04-23T04:39:30;98691.19;;;10.02;100.00
49723;BME280;43484;43.608;1.458;2023-04-23T04:41:57;98694.53;;;9.97;100.00
49723;BME280;43484;43.608;1.458;2023-04-23T04:44:25;98691.91;;;9.92;100.00
49723;BME280;43484;43.608;1.458;2023-04-23T04:46:51;98688.63;;;10.02;100.00
49723;BME280;43484;43.608;1.458;2023-04-23T04:49:19;98687.78;;;10.02;100.00
49723;BME280;43484;43.608;1.458;2023-04-23T04:51:47;98696.94;;;9.86;100.00
49723;BME280;43484;43.608;1.458;2023-04-23T04:54:13;98697.84;;;9.90;100.00
49723;BME280;43484;43.608;1.458;2023-04-23T04:56:40;98702.97;;;9.91;100.00
49723;BME280;43484;43.608;1.458;2023-04-23T04:59:06;98698.00;;;10.00;100.00
49723;BME280;43484;43.608;1.458;2023-04-23T05:01:33;98689.38;;;9.95;100.00
49723;BME280;43484;43.608;1.458;2023-04-23T05:04:00;98685.22;;;10.03;100.00
49723;BME280;43484;43.608;1.458;2023-04-23T05:06:27;98684.53;;;10.12;100.00
49723;BME280;43484;43.608;1.458;2023-04-23T05:08:54;98680.28;;;10.13;100.00
49723;BME280;43484;43.608;1.458;2023-04-23T05:11:20;98684.44;;;10.07;100.00
49723;BME280;43484;43.608;1.458;2023-04-23T05:13:47;98693.66;;;9.98;100.00
49723;BME280;43484;43.608;1.458;2023-04-23T05:16:14;98679.22;;;10.00;100.00
49723;BME280;43484;43.608;1.458;2023-04-23T05:18:41;98693.72;;;9.99;100.00
49723;BME280;43484;43.608;1.458;2023-04-23T05:21:08;98691.13;;;9.98;100.00
49723;BME280;43484;43.608;1.458;2023-04-23T05:23:35;98698.78;;;9.98;100.00
49723;BME280;43484;43.608;1.458;2023-04-23T05:26:02;98684.44;;;10.06;100.00
49723;BME280;43484;43.608;1.458;2023-04-23T05:28:29;98698.88;;;10.04;100.00
49723;BME280;43484;43.608;1.458;2023-04-23T05:30:56;98692.94;;;10.06;100.00
49723;BME280;43484;43.608;1.458;2023-04-23T05:33:24;98689.53;;;10.06;100.00
49723;BME280;43484;43.608;1.458;2023-04-23T05:35:58;98704.13;;;10.11;100.00
49723;BME280;43484;43.608;1.458;2023-04-23T05:38:25;98704.88;;;10.04;100.00
49723;BME280;43484;43.608;1.458;2023-04-23T05:40:52;98713.28;;;9.96;100.00
49723;BME280;43484;43.608;1.458;2023-04-23T05:43:18;98720.22;;;10.04;100.00
49723;BME280;43484;43.608;1.458;2023-04-23T05:45:45;98731.28;;;10.03;100.00
49723;BME280;43484;43.608;1.458;2023-04-23T05:48:12;98729.59;;;10.05;100.00
49723;BME280;43484;43.608;1.458;2023-04-23T05:50:38;98738.97;;;10.03;100.00
49723;BME280;43484;43.608;1.458;2023-04-23T05:53:05;98733.81;;;10.02;100.00
49723;BME280;43484;43.608;1.458;2023-04-23T05:55:31;98744.84;;;9.98;100.00
49723;BME280;43484;43.608;1.458;2023-04-23T05:57:58;98747.59;;;10.08;100.00
49723;BME280;43484;43.608;1.458;2023-04-23T06:00:25;98751.94;;;10.14;100.00
49723;BME280;43484;43.608;1.458;2023-04-23T06:02:51;98753.75;;;10.21;100.00
49723;BME280;43484;43.608;1.458;2023-04-23T06:05:19;98756.31;;;10.21;100.00
49723;BME280;43484;43.608;1.458;2023-04-23T06:07:46;98754.50;;;10.16;100.00
49723;BME280;43484;43.608;1.458;2023-04-23T06:10:12;98761.41;;;10.20;100.00
49723;BME280;43484;43.608;1.458;2023-04-23T06:12:39;98764.91;;;10.26;100.00
49723;BME280;43484;43.608;1.458;2023-04-23T06:15:08;98764.94;;;10.29;100.00
49723;BME280;43484;43.608;1.458;2023-04-23T06:17:36;98758.16;;;10.31;100.00
49723;BME280;43484;43.608;1.458;2023-04-23T06:20:03;98770.25;;;10.44;100.00
49723;BME280;43484;43.608;1.458;2023-04-23T06:22:30;98771.03;;;10.39;100.00
49723;BME280;43484;43.608;1.458;2023-04-23T06:24:57;98784.88;;;10.51;100.00
49723;BME280;43484;43.608;1.458;2023-04-23T06:27:24;98761.94;;;10.62;100.00
49723;BME280;43484;43.608;1.458;2023-04-23T06:29:52;98763.66;;;10.61;100.00
49723;BME280;43484;43.608;1.458;2023-04-23T06:32:20;98749.25;;;10.72;100.00
49723;BME280;43484;43.608;1.458;2023-04-23T06:34:46;98752.69;;;10.74;100.00
49723;BME280;43484;43.608;1.458;2023-04-23T06:37:25;98759.66;;;10.87;100.00
49723;BME280;43484;43.608;1.458;2023-04-23T06:39:55;98776.03;;;10.98;100.00
49723;BME280;43484;43.608;1.458;2023-04-23T06:42:21;98771.84;;;11.08;100.00
49723;BME280;43484;43.608;1.458;2023-04-23T06:44:48;98771.00;;;11.07;100.00
49723;BME280;43484;43.608;1.458;2023-04-23T06:47:14;98770.25;;;11.17;100.00
49723;BME280;43484;43.608;1.458;2023-04-23T06:49:41;98774.47;;;11.12;100.00
49723;BME280;43484;43.608;1.458;2023-04-23T06:52:08;98787.38;;;11.20;100.00
49723;BME280;43484;43.608;1.458;2023-04-23T06:54:34;98794.25;;;11.25;100.00
49723;BME280;43484;43.608;1.458;2023-04-23T06:57:01;98786.59;;;11.28;100.00
49723;BME280;43484;43.608;1.458;2023-04-23T06:59:27;98794.25;;;11.27;100.00
49723;BME280;43484;43.608;1.458;2023-04-23T07:01:54;98801.13;;;11.29;100.00
49723;BME280;43484;43.608;1.458;2023-04-23T07:04:20;98806.38;;;11.43;100.00
49723;BME280;43484;43.608;1.458;2023-04-23T07:06:47;98814.94;;;11.44;100.00
49723;BME280;43484;43.608;1.458;2023-04-23T07:09:14;98815.91;;;11.55;100.00
49723;BME280;43484;43.608;1.458;2023-04-23T07:11:40;98831.28;;;11.55;100.00
49723;BME280;43484;43.608;1.458;2023-04-23T07:14:07;98827.94;;;11.62;100.00
49723;BME280;43484;43.608;1.458;2023-04-23T07:16:34;98840.03;;;11.72;100.00
49723;BME280;43484;43.608;1.458;2023-04-23T07:19:01;98856.34;;;11.81;100.00
49723;BME280;43484;43.608;1.458;2023-04-23T07:21:28;98862.38;;;11.85;100.00
49723;BME280;43484;43.608;1.458;2023-04-23T07:23:57;98876.09;;;11.90;100.00
49723;BME280;43484;43.608;1.458;2023-04-23T07:26:26;98880.44;;;11.95;100.00
49723;BME280;43484;43.608;1.458;2023-04-23T07:28:53;98891.63;;;12.02;100.00
49723;BME280;43484;43.608;1.458;2023-04-23T07:31:20;98901.13;;;12.12;100.00
49723;BME280;43484;43.608;1.458;2023-04-23T07:33:47;98907.09;;;12.11;100.00
49723;BME280;43484;43.608;1.458;2023-04-23T07:36:14;98908.84;;;12.18;100.00
49723;BME280;43484;43.608;1.458;2023-04-23T07:38:42;98937.22;;;12.33;100.00
49723;BME280;43484;43.608;1.458;2023-04-23T07:41:09;98965.59;;;12.48;100.00
49723;BME280;43484;43.608;1.458;2023-04-23T07:43:37;98987.13;;;12.60;100.00
49723;BME280;43484;43.608;1.458;2023-04-23T07:46:04;98995.75;;;12.69;100.00
49723;BME280;43484;43.608;1.458;2023-04-23T07:48:30;98999.22;;;12.74;100.00
49723;BME280;43484;43.608;1.458;2023-04-23T07:50:57;99006.97;;;12.83;100.00
49723;BME280;43484;43.608;1.458;2023-04-23T07:53:24;99027.59;;;12.90;100.00
49723;BME280;43484;43.608;1.458;2023-04-23T07:55:50;99018.19;;;12.92;100.00
49723;BME280;43484;43.608;1.458;2023-04-23T07:58:17;99012.19;;;12.95;100.00
49723;BME280;43484;43.608;1.458;2023-04-23T08:00:44;99012.28;;;13.02;100.00
49723;BME280;43484;43.608;1.458;2023-04-23T08:03:11;99018.34;;;13.13;100.00
49723;BME280;43484;43.608;1.458;2023-04-23T08:05:40;99046.63;;;13.10;100.00
49723;BME280;43484;43.608;1.458;2023-04-23T08:08:07;99068.13;;;13.21;100.00
49723;BME280;43484;43.608;1.458;2023-04-23T08:10:34;99081.94;;;13.34;100.00
49723;BME280;43484;43.608;1.458;2023-04-23T08:13:01;99079.44;;;13.47;100.00
49723;BME280;43484;43.608;1.458;2023-04-23T08:15:28;99096.66;;;13.62;100.00
49723;BME280;43484;43.608;1.458;2023-04-23T08:17:54;99092.47;;;13.73;100.00
49723;BME280;43484;43.608;1.458;2023-04-23T08:20:21;99099.34;;;13.81;100.00
49723;BME280;43484;43.608;1.458;2023-04-23T08:22:50;99120.03;;;13.98;100.00
49723;BME280;43484;43.608;1.458;2023-04-23T08:25:16;99125.22;;;14.12;100.00
49723;BME280;43484;43.608;1.458;2023-04-23T08:27:43;99136.44;;;14.18;100.00
49723;BME280;43484;43.608;1.458;2023-04-23T08:30:09;99137.31;;;14.23;100.00
49723;BME280;43484;43.608;1.458;2023-04-23T08:32:38;99145.09;;;14.31;100.00
49723;BME280;43484;43.608;1.458;2023-04-23T08:35:06;99152.84;;;14.43;100.00
49723;BME280;43484;43.608;1.458;2023-04-23T08:37:33;99154.59;;;14.62;100.00
49723;BME280;43484;43.608;1.458;2023-04-23T08:40:00;99168.41;;;14.71;100.00
49723;BME280;43484;43.608;1.458;2023-04-23T08:42:38;99173.56;;;14.79;100.00
49723;BME280;43484;43.608;1.458;2023-04-23T08:45:06;99177.03;;;14.94;100.00
49723;BME280;43484;43.608;1.458;2023-04-23T08:47:33;99185.66;;;15.13;100.00
49723;BME280;43484;43.608;1.458;2023-04-23T08:50:03;99195.97;;;15.21;100.00
49723;BME280;43484;43.608;1.458;2023-04-23T08:52:33;99195.97;;;15.33;100.00
49723;BME280;43484;43.608;1.458;2023-04-23T08:55:06;99215.81;;;15.49;100.00
49723;BME280;43484;43.608;1.458;2023-04-23T08:57:39;99239.91;;;15.60;100.00
49723;BME280;43484;43.608;1.458;2023-04-23T09:00:10;99252.81;;;15.63;100.00
49723;BME280;43484;43.608;1.458;2023-04-23T09:02:42;99257.09;;;15.58;100.00
49723;BME280;43484;43.608;1.458;2023-04-23T09:05:09;99270.03;;;15.62;100.00
49723;BME280;43484;43.608;1.458;2023-04-23T09:07:36;99268.28;;;15.76;100.00
49723;BME280;43484;43.608;1.458;2023-04-23T09:10:05;99284.66;;;15.83;100.00
49723;BME280;43484;43.608;1.458;2023-04-23T09:12:35;99292.41;;;15.83;100.00
49723;BME280;43484;43.608;1.458;2023-04-23T09:15:03;99289.81;;;15.81;100.00
49723;BME280;43484;43.608;1.458;2023-04-23T09:17:38;99300.16;;;15.90;100.00
49723;BME280;43484;43.608;1.458;2023-04-23T09:20:07;99314.78;;;16.03;100.00
49723;BME280;43484;43.608;1.458;2023-04-23T09:22:47;99317.34;;;16.15;100.00
49723;BME280;43484;43.608;1.458;2023-04-23T09:25:16;99321.66;;;16.24;100.00
49723;BME280;43484;43.608;1.458;2023-04-23T09:27:44;99326.78;;;16.36;100.00
49723;BME280;43484;43.608;1.458;2023-04-23T09:30:12;99326.78;;;16.45;100.00
49723;BME280;43484;43.608;1.458;2023-04-23T09:32:40;99334.53;;;16.59;100.00
49723;BME280;43484;43.608;1.458;2023-04-23T09:35:09;99330.22;;;16.59;100.00
49723;BME280;43484;43.608;1.458;2023-04-23T09:37:36;99321.63;;;16.57;100.00
49723;BME280;43484;43.608;1.458;2023-04-23T09:40:04;99323.31;;;16.60;100.00
49723;BME280;43484;43.608;1.458;2023-04-23T09:42:35;99331.06;;;16.60;100.00
49723;BME280;43484;43.608;1.458;2023-04-23T09:45:07;99331.06;;;16.61;100.00
49723;BME280;43484;43.608;1.458;2023-04-23T09:47:37;99327.56;;;16.82;100.00
49723;BME280;43484;43.608;1.458;2023-04-23T09:50:05;99324.88;;;17.04;100.00
49723;BME280;43484;43.608;1.458;2023-04-23T09:52:32;99332.63;;;17.09;100.00
49723;BME280;43484;43.608;1.458;2023-04-23T09:55:02;99340.34;;;17.16;100.00
49723;BME280;43484;43.608;1.458;2023-04-23T09:57:37;99332.53;;;17.24;100.00
49723;BME280;43484;43.608;1.458;2023-04-23T10:00:15;99329.03;;;17.35;100.00
49723;BME280;43484;43.608;1.458;2023-04-23T10:02:46;99333.31;;;17.45;100.00
49723;BME280;43484;43.608;1.458;2023-04-23T10:05:19;99331.56;;;17.41;100.00
49723;BME280;43484;43.608;1.458;2023-04-23T10:07:55;99327.31;;;17.30;100.00
49723;BME280;43484;43.608;1.458;2023-04-23T10:10:24;99336.84;;;17.28;100.00
49723;BME280;43484;43.608;1.458;2023-04-23T10:12:52;99338.59;;;17.24;100.00
49723;BME280;43484;43.608;1.458;2023-04-23T10:15:25;99346.28;;;17.39;100.00
49723;BME280;43484;43.608;1.458;2023-04-23T10:17:53;99358.31;;;17.45;100.00
49723;BME280;43484;43.608;1.458;2023-04-23T10:20:22;99353.97;;;17.56;100.00
49723;BME280;43484;43.608;1.458;2023-04-23T10:22:50;99360.81;;;17.62;100.00
49723;BME280;43484;43.608;1.458;2023-04-23T10:25:19;99364.25;;;17.70;100.00
49723;BME280;43484;43.608;1.458;2023-04-23T10:27:48;99358.97;;;17.85;100.00
49723;BME280;43484;43.608;1.458;2023-04-23T10:30:20;99351.91;;;18.03;100.00
49723;BME280;43484;43.608;1.458;2023-04-23T10:32:49;99358.75;;;18.07;100.00
49723;BME280;43484;43.608;1.458;2023-04-23T10:35:16;99362.16;;;18.17;100.00
49723;BME280;43484;43.608;1.458;2023-04-23T10:37:44;99363.81;;;18.24;100.00
49723;BME280;43484;43.608;1.458;2023-04-23T10:40:14;99373.28;;;18.29;100.00
49723;BME280;43484;43.608;1.458;2023-04-23T10:42:42;99377.63;;;18.24;100.00
49723;BME280;43484;43.608;1.458;2023-04-23T10:45:14;99389.66;;;18.34;100.00
49723;BME280;43484;43.608;1.458;2023-04-23T10:47:52;99394.78;;;18.39;100.00
49723;BME280;43484;43.608;1.458;2023-04-23T10:50:27;99399.09;;;18.46;100.00
49723;BME280;43484;43.608;1.458;2023-04-23T10:52:56;99406.78;;;18.56;100.00
49723;BME280;43484;43.608;1.458;2023-04-23T10:55:29;99412.66;;;18.73;100.00
49723;BME280;43484;43.608;1.458;2023-04-23T10:58:02;99419.63;;;18.70;100.00
49723;BME280;43484;43.608;1.458;2023-04-23T11:03:31;99430.63;;;18.92;100.00
49723;BME280;43484;43.608;1.458;2023-04-23T11:06:07;99430.69;;;18.87;100.00
49723;BME280;43484;43.608;1.458;2023-04-23T11:08:34;99443.81;;;18.72;100.00
49723;BME280;43484;43.608;1.458;2023-04-23T11:11:06;99437.97;;;18.49;100.00
49723;BME280;43484;43.608;1.458;2023-04-23T11:13:33;99443.19;;;18.46;100.00
49723;BME280;43484;43.608;1.458;2023-04-23T11:16:20;99449.28;;;18.37;100.00
49723;BME280;43484;43.608;1.458;2023-04-23T11:18:57;99447.72;;;18.12;100.00
49723;BME280;43484;43.608;1.458;2023-04-23T11:24:23;99462.28;;;18.31;100.00
49723;BME280;43484;43.608;1.458;2023-04-23T11:26:51;99496.22;;;18.01;100.00
49723;BME280;43484;43.608;1.458;2023-04-23T11:29:22;99484.22;;;17.79;100.00
49723;BME280;43484;43.608;1.458;2023-04-23T11:31:50;99495.41;;;17.89;100.00
49723;BME280;43484;43.608;1.458;2023-04-23T11:34:28;99494.50;;;17.97;100.00
49723;BME280;43484;43.608;1.458;2023-04-23T11:36:57;99518.03;;;17.40;100.00
49723;BME280;43484;43.608;1.458;2023-04-23T11:39:24;99570.72;;;17.24;100.00
49723;BME280;43484;43.608;1.458;2023-04-23T11:41:53;99548.31;;;16.67;100.00
49723;BME280;43484;43.608;1.458;2023-04-23T11:44:20;99549.06;;;16.18;100.00
49723;BME280;43484;43.608;1.458;2023-04-23T11:46:48;99567.22;;;16.38;100.00
49723;BME280;43484;43.608;1.458;2023-04-23T11:49:18;99568.72;;;15.69;100.00
49723;BME280;43484;43.608;1.458;2023-04-23T11:51:47;99571.28;;;15.68;100.00
49723;BME280;43484;43.608;1.458;2023-04-23T11:54:14;99572.00;;;15.40;100.00
49723;BME280;43484;43.608;1.458;2023-04-23T11:56:40;99502.19;;;15.25;100.00
49723;BME280;43484;43.608;1.458;2023-04-23T11:59:08;99385.94;;;14.88;100.00
49723;BME280;43484;43.608;1.458;2023-04-23T12:01:39;99333.22;;;14.38;100.00
49723;BME280;43484;43.608;1.458;2023-04-23T12:04:20;99239.53;;;14.26;100.00
49723;BME280;43484;43.608;1.458;2023-04-23T12:06:49;99204.19;;;14.07;100.00
49723;BME280;43484;43.608;1.458;2023-04-23T12:09:17;99174.00;;;13.80;100.00
49723;BME280;43484;43.608;1.458;2023-04-23T12:11:45;99133.59;;;13.68;100.00
49723;BME280;43484;43.608;1.458;2023-04-23T12:14:13;99101.81;;;13.57;100.00
49723;BME280;43484;43.608;1.458;2023-04-23T12:16:42;99075.19;;;13.54;100.00
49723;BME280;43484;43.608;1.458;2023-04-23T12:19:12;99056.34;;;13.58;100.00
49723;BME280;43484;43.608;1.458;2023-04-23T12:21:54;99061.44;;;13.53;100.00
49723;BME280;43484;43.608;1.458;2023-04-23T12:24:25;99050.25;;;13.42;100.00
49723;BME280;43484;43.608;1.458;2023-04-23T12:26:54;99041.66;;;13.42;100.00
49723;BME280;43484;43.608;1.458;2023-04-23T12:29:21;99034.81;;;13.44;100.00
49723;BME280;43484;43.608;1.458;2023-04-23T12:31:50;99030.56;;;13.47;100.00
49723;BME280;43484;43.608;1.458;2023-04-23T12:34:20;99036.38;;;13.16;100.00
49723;BME280;43484;43.608;1.458;2023-04-23T12:36:52;99080.78;;;12.99;100.00
49723;BME280;43484;43.608;1.458;2023-04-23T12:39:33;99049.88;;;12.91;100.00
49723;BME280;43484;43.608;1.458;2023-04-23T12:42:02;99055.78;;;12.78;100.00
49723;BME280;43484;43.608;1.458;2023-04-23T12:44:32;99053.09;;;12.64;100.00
49723;BME280;43484;43.608;1.458;2023-04-23T12:47:02;99062.53;;;12.64;100.00
49723;BME280;43484;43.608;1.458;2023-04-23T12:49:30;99088.59;;;12.19;100.00
49723;BME280;43484;43.608;1.458;2023-04-23T12:52:00;99064.81;;;12.35;100.00
49723;BME280;43484;43.608;1.458;2023-04-23T12:54:32;99065.50;;;12.19;100.00
49723;BME280;43484;43.608;1.458;2023-04-23T12:57:00;99075.66;;;12.09;100.00
49723;BME280;43484;43.608;1.458;2023-04-23T12:59:30;99047.53;;;12.21;100.00
49723;BME280;43484;43.608;1.458;2023-04-23T13:01:58;99040.50;;;12.02;100.00